sensor_id;sensor_type;location;lat;lon;timestamp;P1;durP1;ratioP1;P2;durP2;ratioP2
26435;SDS011;15351;52.408;16.826;2023-02-19T00:00:16;10.60;;;6.30;;
26435;SDS011;15351;52.408;16.826;2023-02-19T00:03:03;7.30;;;5.70;;
26435;SDS011;15351;52.408;16.826;2023-02-19T00:05:33;9.50;;;6.50;;
26435;SDS011;15351;52.408;16.826;2023-02-19T00:08:01;9.30;;;6.40;;
26435;SDS011;15351;52.408;16.826;2023-02-19T00:10:34;11.00;;;6.80;;
26435;SDS011;15351;52.408;16.826;2023-02-19T00:13:10;7.80;;;6.10;;
26435;SDS011;15351;52.408;16.826;2023-02-19T00:15:41;9.90;;;5.90;;
26435;SDS011;15351;52.408;16.826;2023-02-19T00:18:31;8.20;;;6.30;;
26435;SDS011;15351;52.408;16.826;2023-02-19T00:21:04;9.20;;;6.70;;
26435;SDS011;15351;52.408;16.826;2023-02-19T00:23:31;10.10;;;6.50;;
26435;SDS011;15351;52.408;16.826;2023-02-19T00:26:12;9.20;;;6.40;;
26435;SDS011;15351;52.408;16.826;2023-02-19T00:28:40;8.30;;;5.50;;
26435;SDS011;15351;52.408;16.826;2023-02-19T00:31:32;7.60;;;5.80;;
26435;SDS011;15351;52.408;16.826;2023-02-19T00:34:22;10.90;;;6.20;;
26435;SDS011;15351;52.408;16.826;2023-02-19T00:37:01;8.80;;;5.70;;
26435;SDS011;15351;52.408;16.826;2023-02-19T00:39:36;7.40;;;5.40;;
26435;SDS011;15351;52.408;16.826;2023-02-19T00:42:03;8.20;;;5.90;;
26435;SDS011;15351;52.408;16.826;2023-02-19T00:44:31;10.40;;;6.30;;
26435;SDS011;15351;52.408;16.826;2023-02-19T00:47:01;9.60;;;5.60;;
26435;SDS011;15351;52.408;16.826;2023-02-19T00:49:40;9.90;;;5.90;;
26435;SDS011;15351;52.408;16.826;2023-02-19T00:52:15;8.90;;;5.60;;
26435;SDS011;15351;52.408;16.826;2023-02-19T00:54:46;7.80;;;5.60;;
26435;SDS011;15351;52.408;16.826;2023-02-19T00:57:14;9.20;;;5.80;;
26435;SDS011;15351;52.408;16.826;2023-02-19T00:59:45;9.50;;;5.70;;
26435;SDS011;15351;52.408;16.826;2023-02-19T01:02:15;8.10;;;5.40;;
26435;SDS011;15351;52.408;16.826;2023-02-19T01:04:46;7.50;;;5.20;;
26435;SDS011;15351;52.408;16.826;2023-02-19T01:07:14;7.40;;;5.40;;
26435;SDS011;15351;52.408;16.826;2023-02-19T01:09:44;8.30;;;5.50;;
26435;SDS011;15351;52.408;16.826;2023-02-19T01:12:13;11.70;;;6.10;;
26435;SDS011;15351;52.408;16.826;2023-02-19T01:14:52;11.10;;;6.10;;
26435;SDS011;15351;52.408;16.826;2023-02-19T01:17:20;8.40;;;5.70;;
26435;SDS011;15351;52.408;16.826;2023-02-19T01:19:49;10.80;;;6.10;;
26435;SDS011;15351;52.408;16.826;2023-02-19T01:22:17;9.70;;;6.00;;
26435;SDS011;15351;52.408;16.826;2023-02-19T01:24:54;9.10;;;5.70;;
26435;SDS011;15351;52.408;16.826;2023-02-19T01:27:22;8.60;;;5.50;;
26435;SDS011;15351;52.408;16.826;2023-02-19T01:30:00;7.80;;;5.10;;
26435;SDS011;15351;52.408;16.826;2023-02-19T01:32:27;8.70;;;5.70;;
26435;SDS011;15351;52.408;16.826;2023-02-19T01:34:55;8.00;;;5.50;;
26435;SDS011;15351;52.408;16.826;2023-02-19T01:37:23;7.30;;;5.10;;
26435;SDS011;15351;52.408;16.826;2023-02-19T01:39:51;9.30;;;5.20;;
26435;SDS011;15351;52.408;16.826;2023-02-19T01:42:26;8.50;;;5.10;;
26435;SDS011;15351;52.408;16.826;2023-02-19T01:45:18;8.50;;;6.10;;
26435;SDS011;15351;52.408;16.826;2023-02-19T01:48:13;9.20;;;5.40;;
26435;SDS011;15351;52.408;16.826;2023-02-19T01:50:56;11.30;;;6.10;;
26435;SDS011;15351;52.408;16.826;2023-02-19T01:53:33;10.50;;;6.30;;
26435;SDS011;15351;52.408;16.826;2023-02-19T01:56:03;10.70;;;6.70;;
26435;SDS011;15351;52.408;16.826;2023-02-19T01:58:33;11.80;;;6.60;;
26435;SDS011;15351;52.408;16.826;2023-02-19T02:01:04;9.60;;;6.50;;
26435;SDS011;15351;52.408;16.826;2023-02-19T02:03:38;10.70;;;5.90;;
26435;SDS011;15351;52.408;16.826;2023-02-19T02:09:04;12.40;;;6.80;;
26435;SDS011;15351;52.408;16.826;2023-02-19T02:12:05;11.60;;;6.60;;
26435;SDS011;15351;52.408;16.826;2023-02-19T02:14:45;11.80;;;6.50;;
26435;SDS011;15351;52.408;16.826;2023-02-19T02:17:24;11.30;;;6.20;;
26435;SDS011;15351;52.408;16.826;2023-02-19T02:26:50;12.00;;;6.80;;
26435;SDS011;15351;52.408;16.826;2023-02-19T02:36:14;10.70;;;6.60;;
26435;SDS011;15351;52.408;16.826;2023-02-19T02:39:12;12.80;;;6.50;;
26435;SDS011;15351;52.408;16.826;2023-02-19T02:42:00;10.30;;;6.80;;
26435;SDS011;15351;52.408;16.826;2023-02-19T02:44:56;10.40;;;6.30;;
26435;SDS011;15351;52.408;16.826;2023-02-19T02:48:15;11.30;;;6.30;;
26435;SDS011;15351;52.408;16.826;2023-02-19T02:53:48;9.70;;;6.00;;
26435;SDS011;15351;52.408;16.826;2023-02-19T02:56:41;10.60;;;6.20;;
26435;SDS011;15351;52.408;16.826;2023-02-19T02:59:12;9.70;;;6.10;;
26435;SDS011;15351;52.408;16.826;2023-02-19T03:01:50;10.80;;;6.20;;
26435;SDS011;15351;52.408;16.826;2023-02-19T03:08:14;10.60;;;6.00;;
26435;SDS011;15351;52.408;16.826;2023-02-19T03:11:12;11.80;;;6.30;;
26435;SDS011;15351;52.408;16.826;2023-02-19T03:14:05;10.90;;;6.10;;
26435;SDS011;15351;52.408;16.826;2023-02-19T03:17:08;11.30;;;6.40;;
26435;SDS011;15351;52.408;16.826;2023-02-19T03:20:02;9.70;;;6.60;;
26435;SDS011;15351;52.408;16.826;2023-02-19T03:22:36;11.20;;;7.10;;
26435;SDS011;15351;52.408;16.826;2023-02-19T03:25:14;9.30;;;6.20;;
26435;SDS011;15351;52.408;16.826;2023-02-19T03:28:32;13.30;;;6.70;;
26435;SDS011;15351;52.408;16.826;2023-02-19T03:31:28;10.80;;;6.60;;
26435;SDS011;15351;52.408;16.826;2023-02-19T03:34:16;12.10;;;6.40;;
26435;SDS011;15351;52.408;16.826;2023-02-19T03:37:14;9.60;;;5.70;;
26435;SDS011;15351;52.408;16.826;2023-02-19T03:40:07;10.20;;;6.00;;
26435;SDS011;15351;52.408;16.826;2023-02-19T03:43:05;8.30;;;5.50;;
26435;SDS011;15351;52.408;16.826;2023-02-19T03:48:47;11.40;;;6.80;;
26435;SDS011;15351;52.408;16.826;2023-02-19T03:51:29;11.90;;;6.80;;
26435;SDS011;15351;52.408;16.826;2023-02-19T03:56:29;10.20;;;7.30;;
26435;SDS011;15351;52.408;16.826;2023-02-19T03:59:58;13.60;;;7.80;;
26435;SDS011;15351;52.408;16.826;2023-02-19T04:02:14;11.60;;;7.40;;
26435;SDS011;15351;52.408;16.826;2023-02-19T04:05:10;9.90;;;6.30;;
26435;SDS011;15351;52.408;16.826;2023-02-19T04:07:48;9.00;;;6.60;;
26435;SDS011;15351;52.408;16.826;2023-02-19T04:10:33;9.80;;;6.00;;
26435;SDS011;15351;52.408;16.826;2023-02-19T04:13:10;10.80;;;7.00;;
26435;SDS011;15351;52.408;16.826;2023-02-19T04:15:53;10.60;;;6.50;;
26435;SDS011;15351;52.408;16.826;2023-02-19T04:18:47;9.50;;;6.00;;
26435;SDS011;15351;52.408;16.826;2023-02-19T04:21:29;10.50;;;6.90;;
26435;SDS011;15351;52.408;16.826;2023-02-19T04:24:37;9.20;;;6.50;;
26435;SDS011;15351;52.408;16.826;2023-02-19T04:27:16;10.40;;;6.50;;
26435;SDS011;15351;52.408;16.826;2023-02-19T04:29:44;11.40;;;6.40;;
26435;SDS011;15351;52.408;16.826;2023-02-19T04:32:12;10.20;;;6.80;;
26435;SDS011;15351;52.408;16.826;2023-02-19T04:34:49;10.20;;;7.60;;
26435;SDS011;15351;52.408;16.826;2023-02-19T04:37:23;12.00;;;8.00;;
26435;SDS011;15351;52.408;16.826;2023-02-19T04:40:25;13.20;;;7.50;;
26435;SDS011;15351;52.408;16.826;2023-02-19T04:42:55;10.20;;;7.50;;
26435;SDS011;15351;52.408;16.826;2023-02-19T04:45:28;12.10;;;8.30;;
26435;SDS011;15351;52.408;16.826;2023-02-19T04:47:59;13.10;;;8.60;;
26435;SDS011;15351;52.408;16.826;2023-02-19T04:50:39;13.40;;;8.60;;
26435;SDS011;15351;52.408;16.826;2023-02-19T04:53:08;14.00;;;8.30;;
26435;SDS011;15351;52.408;16.826;2023-02-19T04:55:37;12.00;;;8.50;;
26435;SDS011;15351;52.408;16.826;2023-02-19T04:58:07;13.40;;;8.30;;
26435;SDS011;15351;52.408;16.826;2023-02-19T05:00:43;12.70;;;8.70;;
26435;SDS011;15351;52.408;16.826;2023-02-19T05:03:14;13.00;;;8.90;;
26435;SDS011;15351;52.408;16.826;2023-02-19T05:05:42;14.10;;;8.50;;
26435;SDS011;15351;52.408;16.826;2023-02-19T05:08:15;10.60;;;8.40;;
26435;SDS011;15351;52.408;16.826;2023-02-19T05:10:44;14.30;;;9.10;;
26435;SDS011;15351;52.408;16.826;2023-02-19T05:13:13;14.80;;;9.10;;
26435;SDS011;15351;52.408;16.826;2023-02-19T05:15:59;11.30;;;8.40;;
26435;SDS011;15351;52.408;16.826;2023-02-19T05:18:31;12.30;;;8.10;;
26435;SDS011;15351;52.408;16.826;2023-02-19T05:21:01;12.10;;;8.60;;
26435;SDS011;15351;52.408;16.826;2023-02-19T05:23:33;12.20;;;8.30;;
26435;SDS011;15351;52.408;16.826;2023-02-19T05:26:12;14.10;;;8.80;;
26435;SDS011;15351;52.408;16.826;2023-02-19T05:28:44;12.40;;;8.70;;
26435;SDS011;15351;52.408;16.826;2023-02-19T05:31:14;12.40;;;8.30;;
26435;SDS011;15351;52.408;16.826;2023-02-19T05:33:43;12.70;;;8.60;;
26435;SDS011;15351;52.408;16.826;2023-02-19T05:36:19;12.20;;;8.90;;
26435;SDS011;15351;52.408;16.826;2023-02-19T05:39:08;13.60;;;9.10;;
26435;SDS011;15351;52.408;16.826;2023-02-19T05:41:39;12.90;;;8.50;;
26435;SDS011;15351;52.408;16.826;2023-02-19T05:44:09;11.20;;;8.50;;
26435;SDS011;15351;52.408;16.826;2023-02-19T05:46:53;14.30;;;9.60;;
26435;SDS011;15351;52.408;16.826;2023-02-19T05:49:21;14.40;;;10.70;;
26435;SDS011;15351;52.408;16.826;2023-02-19T05:51:50;17.30;;;10.30;;
26435;SDS011;15351;52.408;16.826;2023-02-19T05:54:22;16.00;;;9.90;;
26435;SDS011;15351;52.408;16.826;2023-02-19T05:56:56;13.80;;;10.20;;
26435;SDS011;15351;52.408;16.826;2023-02-19T05:59:32;13.60;;;10.30;;
26435;SDS011;15351;52.408;16.826;2023-02-19T06:02:00;15.30;;;10.10;;
26435;SDS011;15351;52.408;16.826;2023-02-19T06:04:30;16.00;;;10.00;;
26435;SDS011;15351;52.408;16.826;2023-02-19T06:07:19;13.10;;;9.50;;
26435;SDS011;15351;52.408;16.826;2023-02-19T06:10:27;13.50;;;10.60;;
26435;SDS011;15351;52.408;16.826;2023-02-19T06:13:04;14.10;;;11.00;;
26435;SDS011;15351;52.408;16.826;2023-02-19T06:15:47;15.10;;;10.20;;
26435;SDS011;15351;52.408;16.826;2023-02-19T06:18:22;14.60;;;10.30;;
26435;SDS011;15351;52.408;16.826;2023-02-19T06:20:49;13.20;;;10.80;;
26435;SDS011;15351;52.408;16.826;2023-02-19T06:23:19;15.00;;;12.00;;
26435;SDS011;15351;52.408;16.826;2023-02-19T06:25:47;16.60;;;11.70;;
26435;SDS011;15351;52.408;16.826;2023-02-19T06:29:15;16.40;;;11.30;;
26435;SDS011;15351;52.408;16.826;2023-02-19T06:31:50;15.20;;;11.30;;
26435;SDS011;15351;52.408;16.826;2023-02-19T06:34:21;16.00;;;11.80;;
26435;SDS011;15351;52.408;16.826;2023-02-19T06:36:51;15.30;;;12.80;;
26435;SDS011;15351;52.408;16.826;2023-02-19T06:39:23;17.00;;;12.00;;
26435;SDS011;15351;52.408;16.826;2023-02-19T06:41:59;17.10;;;11.70;;
26435;SDS011;15351;52.408;16.826;2023-02-19T06:44:47;15.10;;;11.80;;
26435;SDS011;15351;52.408;16.826;2023-02-19T06:47:15;17.30;;;12.40;;
26435;SDS011;15351;52.408;16.826;2023-02-19T06:50:22;20.30;;;12.90;;
26435;SDS011;15351;52.408;16.826;2023-02-19T06:52:53;20.80;;;12.70;;
26435;SDS011;15351;52.408;16.826;2023-02-19T06:55:26;16.60;;;12.40;;
26435;SDS011;15351;52.408;16.826;2023-02-19T06:57:56;17.10;;;12.40;;
26435;SDS011;15351;52.408;16.826;2023-02-19T07:00:24;17.10;;;13.30;;
26435;SDS011;15351;52.408;16.826;2023-02-19T07:03:09;20.60;;;12.70;;
26435;SDS011;15351;52.408;16.826;2023-02-19T07:05:38;16.10;;;11.80;;
26435;SDS011;15351;52.408;16.826;2023-02-19T07:08:14;15.10;;;11.60;;
26435;SDS011;15351;52.408;16.826;2023-02-19T07:10:53;17.90;;;13.30;;
26435;SDS011;15351;52.408;16.826;2023-02-19T07:13:27;17.60;;;12.90;;
26435;SDS011;15351;52.408;16.826;2023-02-19T07:16:20;16.10;;;12.00;;
26435;SDS011;15351;52.408;16.826;2023-02-19T07:18:48;18.30;;;11.70;;
26435;SDS011;15351;52.408;16.826;2023-02-19T07:21:20;16.20;;;12.30;;
26435;SDS011;15351;52.408;16.826;2023-02-19T07:23:49;17.10;;;12.30;;
26435;SDS011;15351;52.408;16.826;2023-02-19T07:26:17;20.10;;;12.30;;
26435;SDS011;15351;52.408;16.826;2023-02-19T07:28:48;17.80;;;12.10;;
26435;SDS011;15351;52.408;16.826;2023-02-19T07:31:17;18.70;;;11.50;;
26435;SDS011;15351;52.408;16.826;2023-02-19T07:33:48;16.20;;;12.30;;
26435;SDS011;15351;52.408;16.826;2023-02-19T07:36:22;19.30;;;12.90;;
26435;SDS011;15351;52.408;16.826;2023-02-19T07:38:53;22.00;;;12.50;;
26435;SDS011;15351;52.408;16.826;2023-02-19T07:41:24;18.90;;;12.20;;
26435;SDS011;15351;52.408;16.826;2023-02-19T07:43:52;17.90;;;11.50;;
26435;SDS011;15351;52.408;16.826;2023-02-19T07:46:23;16.70;;;12.00;;
26435;SDS011;15351;52.408;16.826;2023-02-19T07:49:08;16.80;;;12.90;;
26435;SDS011;15351;52.408;16.826;2023-02-19T07:51:35;18.20;;;11.70;;
26435;SDS011;15351;52.408;16.826;2023-02-19T07:54:05;16.50;;;11.00;;
26435;SDS011;15351;52.408;16.826;2023-02-19T07:56:36;18.10;;;11.70;;
26435;SDS011;15351;52.408;16.826;2023-02-19T07:59:10;16.10;;;11.70;;
26435;SDS011;15351;52.408;16.826;2023-02-19T08:02:02;18.70;;;12.20;;
26435;SDS011;15351;52.408;16.826;2023-02-19T08:04:51;16.40;;;10.80;;
26435;SDS011;15351;52.408;16.826;2023-02-19T08:07:18;18.30;;;10.80;;
26435;SDS011;15351;52.408;16.826;2023-02-19T08:09:45;14.80;;;10.60;;
26435;SDS011;15351;52.408;16.826;2023-02-19T08:12:36;17.30;;;11.30;;
26435;SDS011;15351;52.408;16.826;2023-02-19T08:15:23;17.40;;;10.60;;
26435;SDS011;15351;52.408;16.826;2023-02-19T08:17:51;16.80;;;10.30;;
26435;SDS011;15351;52.408;16.826;2023-02-19T08:20:20;16.80;;;9.50;;
26435;SDS011;15351;52.408;16.826;2023-02-19T08:22:54;14.70;;;10.20;;
26435;SDS011;15351;52.408;16.826;2023-02-19T08:25:24;16.30;;;10.20;;
26435;SDS011;15351;52.408;16.826;2023-02-19T08:27:59;17.80;;;9.80;;
26435;SDS011;15351;52.408;16.826;2023-02-19T08:30:28;15.40;;;9.20;;
26435;SDS011;15351;52.408;16.826;2023-02-19T08:32:58;16.20;;;9.40;;
26435;SDS011;15351;52.408;16.826;2023-02-19T08:35:48;12.80;;;8.70;;
26435;SDS011;15351;52.408;16.826;2023-02-19T08:38:20;14.90;;;9.30;;
26435;SDS011;15351;52.408;16.826;2023-02-19T08:40:49;20.40;;;9.40;;
26435;SDS011;15351;52.408;16.826;2023-02-19T08:43:17;16.50;;;8.30;;
26435;SDS011;15351;52.408;16.826;2023-02-19T08:45:51;15.70;;;7.80;;
26435;SDS011;15351;52.408;16.826;2023-02-19T08:48:40;11.80;;;7.60;;
26435;SDS011;15351;52.408;16.826;2023-02-19T08:51:19;13.80;;;8.50;;
26435;SDS011;15351;52.408;16.826;2023-02-19T08:53:49;14.80;;;8.70;;
26435;SDS011;15351;52.408;16.826;2023-02-19T08:56:16;16.20;;;7.80;;
26435;SDS011;15351;52.408;16.826;2023-02-19T08:58:44;14.30;;;7.10;;
26435;SDS011;15351;52.408;16.826;2023-02-19T09:01:18;10.10;;;6.50;;
26435;SDS011;15351;52.408;16.826;2023-02-19T09:04:26;13.00;;;7.00;;
26435;SDS011;15351;52.408;16.826;2023-02-19T09:07:27;12.80;;;7.30;;
26435;SDS011;15351;52.408;16.826;2023-02-19T09:09:55;14.00;;;7.30;;
26435;SDS011;15351;52.408;16.826;2023-02-19T09:12:23;12.40;;;6.10;;
26435;SDS011;15351;52.408;16.826;2023-02-19T09:14:53;11.80;;;6.00;;
26435;SDS011;15351;52.408;16.826;2023-02-19T09:17:51;13.60;;;6.90;;
26435;SDS011;15351;52.408;16.826;2023-02-19T09:20:18;10.70;;;6.50;;
26435;SDS011;15351;52.408;16.826;2023-02-19T09:22:54;13.10;;;6.20;;
26435;SDS011;15351;52.408;16.826;2023-02-19T09:25:55;13.50;;;6.30;;
26435;SDS011;15351;52.408;16.826;2023-02-19T09:28:57;9.80;;;5.20;;
26435;SDS011;15351;52.408;16.826;2023-02-19T09:31:24;10.50;;;5.40;;
26435;SDS011;15351;52.408;16.826;2023-02-19T09:33:53;12.00;;;5.20;;
26435;SDS011;15351;52.408;16.826;2023-02-19T09:36:22;13.90;;;5.40;;
26435;SDS011;15351;52.408;16.826;2023-02-19T09:38:50;11.20;;;4.70;;
26435;SDS011;15351;52.408;16.826;2023-02-19T09:41:46;12.20;;;4.80;;
26435;SDS011;15351;52.408;16.826;2023-02-19T09:45:32;8.80;;;4.30;;
26435;SDS011;15351;52.408;16.826;2023-02-19T09:48:48;10.90;;;4.90;;
26435;SDS011;15351;52.408;16.826;2023-02-19T09:51:17;12.40;;;5.70;;
26435;SDS011;15351;52.408;16.826;2023-02-19T09:57:11;15.00;;;5.40;;
26435;SDS011;15351;52.408;16.826;2023-02-19T09:59:45;9.40;;;4.20;;
26435;SDS011;15351;52.408;16.826;2023-02-19T10:02:49;10.10;;;4.20;;
26435;SDS011;15351;52.408;16.826;2023-02-19T10:06:05;8.40;;;4.00;;
26435;SDS011;15351;52.408;16.826;2023-02-19T10:09:04;8.50;;;4.10;;
26435;SDS011;15351;52.408;16.826;2023-02-19T10:12:03;9.30;;;4.20;;
26435;SDS011;15351;52.408;16.826;2023-02-19T10:18:03;10.10;;;4.70;;
26435;SDS011;15351;52.408;16.826;2023-02-19T10:20:40;9.90;;;4.90;;
26435;SDS011;15351;52.408;16.826;2023-02-19T10:23:53;10.90;;;4.90;;
26435;SDS011;15351;52.408;16.826;2023-02-19T10:26:28;7.00;;;3.70;;
26435;SDS011;15351;52.408;16.826;2023-02-19T10:29:55;10.70;;;4.30;;
26435;SDS011;15351;52.408;16.826;2023-02-19T10:33:13;9.50;;;4.10;;
26435;SDS011;15351;52.408;16.826;2023-02-19T10:35:57;8.30;;;4.30;;
26435;SDS011;15351;52.408;16.826;2023-02-19T10:38:59;11.10;;;4.90;;
26435;SDS011;15351;52.408;16.826;2023-02-19T10:41:52;9.50;;;4.80;;
26435;SDS011;15351;52.408;16.826;2023-02-19T10:44:57;10.60;;;4.00;;
26435;SDS011;15351;52.408;16.826;2023-02-19T10:47:53;8.70;;;3.80;;
26435;SDS011;15351;52.408;16.826;2023-02-19T10:50:27;9.90;;;3.70;;
26435;SDS011;15351;52.408;16.826;2023-02-19T10:56:24;8.80;;;3.70;;
26435;SDS011;15351;52.408;16.826;2023-02-19T10:59:15;9.40;;;4.10;;
26435;SDS011;15351;52.408;16.826;2023-02-19T11:02:00;10.60;;;4.40;;
26435;SDS011;15351;52.408;16.826;2023-02-19T11:04:29;11.90;;;5.40;;
26435;SDS011;15351;52.408;16.826;2023-02-19T11:07:13;8.10;;;3.10;;
26435;SDS011;15351;52.408;16.826;2023-02-19T11:09:52;9.10;;;3.50;;
26435;SDS011;15351;52.408;16.826;2023-02-19T11:12:22;7.70;;;3.30;;
26435;SDS011;15351;52.408;16.826;2023-02-19T11:15:12;7.50;;;3.30;;
26435;SDS011;15351;52.408;16.826;2023-02-19T11:17:54;6.40;;;3.10;;
26435;SDS011;15351;52.408;16.826;2023-02-19T11:20:22;7.00;;;2.90;;
26435;SDS011;15351;52.408;16.826;2023-02-19T11:22:54;9.40;;;3.00;;
26435;SDS011;15351;52.408;16.826;2023-02-19T11:25:45;9.20;;;3.20;;
26435;SDS011;15351;52.408;16.826;2023-02-19T11:28:38;8.10;;;3.60;;
26435;SDS011;15351;52.408;16.826;2023-02-19T11:34:02;8.80;;;3.90;;
26435;SDS011;15351;52.408;16.826;2023-02-19T11:37:11;9.80;;;4.40;;
26435;SDS011;15351;52.408;16.826;2023-02-19T11:39:44;10.30;;;4.20;;
26435;SDS011;15351;52.408;16.826;2023-02-19T11:42:35;9.00;;;3.80;;
26435;SDS011;15351;52.408;16.826;2023-02-19T11:45:28;11.10;;;4.00;;
26435;SDS011;15351;52.408;16.826;2023-02-19T11:48:30;10.30;;;4.20;;
26435;SDS011;15351;52.408;16.826;2023-02-19T11:51:19;9.50;;;3.70;;
26435;SDS011;15351;52.408;16.826;2023-02-19T11:56:59;15.70;;;7.80;;
26435;SDS011;15351;52.408;16.826;2023-02-19T12:00:25;16.20;;;8.70;;
26435;SDS011;15351;52.408;16.826;2023-02-19T12:09:16;10.00;;;4.20;;
26435;SDS011;15351;52.408;16.826;2023-02-19T12:14:53;7.90;;;3.70;;
26435;SDS011;15351;52.408;16.826;2023-02-19T12:20:48;10.40;;;3.90;;
26435;SDS011;15351;52.408;16.826;2023-02-19T12:27:18;9.60;;;4.10;;
26435;SDS011;15351;52.408;16.826;2023-02-19T12:33:31;7.90;;;2.90;;
26435;SDS011;15351;52.408;16.826;2023-02-19T12:42:31;10.20;;;3.60;;
26435;SDS011;15351;52.408;16.826;2023-02-19T12:45:41;9.00;;;3.50;;
26435;SDS011;15351;52.408;16.826;2023-02-19T12:50:51;7.20;;;3.30;;
26435;SDS011;15351;52.408;16.826;2023-02-19T12:53:50;7.60;;;3.40;;
26435;SDS011;15351;52.408;16.826;2023-02-19T12:56:58;7.70;;;3.30;;
26435;SDS011;15351;52.408;16.826;2023-02-19T12:59:47;6.90;;;2.90;;
26435;SDS011;15351;52.408;16.826;2023-02-19T13:02:55;6.40;;;2.50;;
26435;SDS011;15351;52.408;16.826;2023-02-19T13:05:37;5.80;;;2.30;;
26435;SDS011;15351;52.408;16.826;2023-02-19T13:11:16;5.90;;;2.60;;
26435;SDS011;15351;52.408;16.826;2023-02-19T13:13:56;5.80;;;2.50;;
26435;SDS011;15351;52.408;16.826;2023-02-19T13:16:50;8.60;;;4.20;;
26435;SDS011;15351;52.408;16.826;2023-02-19T13:19:24;9.50;;;3.80;;
26435;SDS011;15351;52.408;16.826;2023-02-19T13:22:06;6.60;;;3.60;;
26435;SDS011;15351;52.408;16.826;2023-02-19T13:25:20;7.10;;;3.10;;
26435;SDS011;15351;52.408;16.826;2023-02-19T13:27:54;7.80;;;3.20;;
26435;SDS011;15351;52.408;16.826;2023-02-19T13:30:38;7.20;;;3.50;;
26435;SDS011;15351;52.408;16.826;2023-02-19T13:36:49;9.70;;;3.10;;
26435;SDS011;15351;52.408;16.826;2023-02-19T13:39:29;6.80;;;3.00;;
26435;SDS011;15351;52.408;16.826;2023-02-19T13:41:57;7.50;;;2.50;;
26435;SDS011;15351;52.408;16.826;2023-02-19T13:44:29;6.60;;;2.60;;
26435;SDS011;15351;52.408;16.826;2023-02-19T13:47:25;8.00;;;2.80;;
26435;SDS011;15351;52.408;16.826;2023-02-19T13:50:20;7.70;;;3.20;;
26435;SDS011;15351;52.408;16.826;2023-02-19T13:52:54;7.80;;;3.30;;
26435;SDS011;15351;52.408;16.826;2023-02-19T14:00:21;10.70;;;4.50;;
26435;SDS011;15351;52.408;16.826;2023-02-19T14:03:26;5.10;;;3.10;;
26435;SDS011;15351;52.408;16.826;2023-02-19T14:06:08;6.10;;;2.40;;
26435;SDS011;15351;52.408;16.826;2023-02-19T14:14:49;7.50;;;3.00;;
26435;SDS011;15351;52.408;16.826;2023-02-19T14:17:26;6.80;;;3.20;;
26435;SDS011;15351;52.408;16.826;2023-02-19T14:20:01;6.30;;;2.60;;
26435;SDS011;15351;52.408;16.826;2023-02-19T14:22:57;6.40;;;2.30;;
26435;SDS011;15351;52.408;16.826;2023-02-19T14:25:50;4.90;;;2.30;;
26435;SDS011;15351;52.408;16.826;2023-02-19T14:28:29;4.80;;;2.30;;
26435;SDS011;15351;52.408;16.826;2023-02-19T14:31:21;7.10;;;3.20;;
26435;SDS011;15351;52.408;16.826;2023-02-19T14:34:14;9.20;;;4.00;;
26435;SDS011;15351;52.408;16.826;2023-02-19T14:37:08;6.60;;;3.40;;
26435;SDS011;15351;52.408;16.826;2023-02-19T14:39:43;6.20;;;2.80;;
26435;SDS011;15351;52.408;16.826;2023-02-19T14:42:15;5.40;;;2.40;;
26435;SDS011;15351;52.408;16.826;2023-02-19T14:44:51;5.70;;;2.30;;
26435;SDS011;15351;52.408;16.826;2023-02-19T14:47:32;4.50;;;2.30;;
26435;SDS011;15351;52.408;16.826;2023-02-19T14:50:12;5.30;;;2.30;;
26435;SDS011;15351;52.408;16.826;2023-02-19T14:53:16;6.60;;;2.60;;
26435;SDS011;15351;52.408;16.826;2023-02-19T14:55:47;6.70;;;3.20;;
26435;SDS011;15351;52.408;16.826;2023-02-19T14:58:25;8.60;;;3.70;;
26435;SDS011;15351;52.408;16.826;2023-02-19T15:00:57;14.00;;;6.10;;
26435;SDS011;15351;52.408;16.826;2023-02-19T15:03:29;18.10;;;6.80;;
26435;SDS011;15351;52.408;16.826;2023-02-19T15:08:37;26.50;;;9.10;;
26435;SDS011;15351;52.408;16.826;2023-02-19T15:11:20;29.90;;;11.50;;
26435;SDS011;15351;52.408;16.826;2023-02-19T15:13:55;13.50;;;6.30;;
26435;SDS011;15351;52.408;16.826;2023-02-19T15:16:31;12.50;;;5.80;;
26435;SDS011;15351;52.408;16.826;2023-02-19T15:19:04;8.10;;;4.40;;
26435;SDS011;15351;52.408;16.826;2023-02-19T15:22:13;7.30;;;4.10;;
26435;SDS011;15351;52.408;16.826;2023-02-19T15:25:15;12.50;;;6.70;;
26435;SDS011;15351;52.408;16.826;2023-02-19T15:27:46;10.90;;;5.10;;
26435;SDS011;15351;52.408;16.826;2023-02-19T15:30:17;12.90;;;7.80;;
26435;SDS011;15351;52.408;16.826;2023-02-19T15:32:56;14.80;;;7.70;;
26435;SDS011;15351;52.408;16.826;2023-02-19T15:35:25;10.10;;;5.40;;
26435;SDS011;15351;52.408;16.826;2023-02-19T15:38:01;6.40;;;3.60;;
26435;SDS011;15351;52.408;16.826;2023-02-19T15:40:34;5.30;;;3.10;;
26435;SDS011;15351;52.408;16.826;2023-02-19T15:47:18;8.40;;;4.50;;
26435;SDS011;15351;52.408;16.826;2023-02-19T15:53:06;8.10;;;4.40;;
26435;SDS011;15351;52.408;16.826;2023-02-19T15:55:59;8.50;;;4.10;;
26435;SDS011;15351;52.408;16.826;2023-02-19T15:58:41;8.80;;;4.60;;
26435;SDS011;15351;52.408;16.826;2023-02-19T16:01:21;8.60;;;4.80;;
26435;SDS011;15351;52.408;16.826;2023-02-19T16:03:53;8.60;;;5.20;;
26435;SDS011;15351;52.408;16.826;2023-02-19T16:06:23;9.40;;;5.50;;
26435;SDS011;15351;52.408;16.826;2023-02-19T16:11:46;11.10;;;6.50;;
26435;SDS011;15351;52.408;16.826;2023-02-19T16:16:53;15.20;;;7.60;;
26435;SDS011;15351;52.408;16.826;2023-02-19T16:19:27;15.60;;;8.10;;
26435;SDS011;15351;52.408;16.826;2023-02-19T16:22:00;16.40;;;7.40;;
26435;SDS011;15351;52.408;16.826;2023-02-19T16:24:34;16.20;;;8.60;;
26435;SDS011;15351;52.408;16.826;2023-02-19T16:27:26;18.60;;;9.10;;
26435;SDS011;15351;52.408;16.826;2023-02-19T16:32:31;17.70;;;8.60;;
26435;SDS011;15351;52.408;16.826;2023-02-19T16:35:33;15.30;;;9.60;;
26435;SDS011;15351;52.408;16.826;2023-02-19T16:38:12;14.40;;;8.70;;
26435;SDS011;15351;52.408;16.826;2023-02-19T16:43:29;19.70;;;12.70;;
26435;SDS011;15351;52.408;16.826;2023-02-19T16:46:06;22.30;;;13.60;;
26435;SDS011;15351;52.408;16.826;2023-02-19T16:48:39;17.80;;;11.60;;
26435;SDS011;15351;52.408;16.826;2023-02-19T16:51:08;14.10;;;8.40;;
26435;SDS011;15351;52.408;16.826;2023-02-19T16:53:48;13.30;;;8.70;;
26435;SDS011;15351;52.408;16.826;2023-02-19T16:56:36;12.80;;;8.20;;
26435;SDS011;15351;52.408;16.826;2023-02-19T16:59:05;13.10;;;8.60;;
26435;SDS011;15351;52.408;16.826;2023-02-19T17:01:34;15.20;;;9.60;;
26435;SDS011;15351;52.408;16.826;2023-02-19T17:04:08;12.80;;;8.60;;
26435;SDS011;15351;52.408;16.826;2023-02-19T17:06:54;15.80;;;9.90;;
26435;SDS011;15351;52.408;16.826;2023-02-19T17:09:25;14.90;;;9.10;;
26435;SDS011;15351;52.408;16.826;2023-02-19T17:12:11;13.00;;;7.80;;
26435;SDS011;15351;52.408;16.826;2023-02-19T17:14:42;11.70;;;7.10;;
26435;SDS011;15351;52.408;16.826;2023-02-19T17:17:11;10.80;;;6.10;;
26435;SDS011;15351;52.408;16.826;2023-02-19T17:19:39;11.20;;;6.10;;
26435;SDS011;15351;52.408;16.826;2023-02-19T17:22:10;12.60;;;7.50;;
26435;SDS011;15351;52.408;16.826;2023-02-19T17:24:43;12.80;;;8.30;;
26435;SDS011;15351;52.408;16.826;2023-02-19T17:27:11;12.20;;;8.50;;
26435;SDS011;15351;52.408;16.826;2023-02-19T17:29:43;12.80;;;8.10;;